Time;durP1;ratioP1;P1;durP2;ratioP2;P2;SDS_P1;SDS_P2;PMS_P1;PMS_P2;Temp;Humidity;BMP_temperature;BMP_pressure;BME280_temperature;BME280_humidity;BME280_pressure;Samples;Min_cycle;Max_cycle;Signal;HPM_P1;HPM_P2
2022/08/04 00:02:36;;;;;;;1.65;0.85;;;26.90;48.60;;;;;;4982890;28;20113;-91
2022/08/04 00:05:10;;;;;;;1.75;1.15;;;27.00;48.70;;;;;;4977987;28;20062;-91
2022/08/04 00:07:41;;;;;;;1.88;0.80;;;;;;;;;;4986684;28;20065;-91
2022/08/04 00:10:08;;;;;;;1.58;0.80;;;;;;;;;;4986354;28;20046;-90
2022/08/04 00:12:36;;;;;;;1.45;0.70;;;;;;;;;;4989161;28;20026;-91
2022/08/04 00:15:04;;;;;;;3.63;1.05;;;;;;;;;;4993128;28;20038;-90
2022/08/04 00:17:40;;;;;;;1.67;1.27;;;;;;;;;;4962887;28;20042;-91
2022/08/04 00:20:07;;;;;;;5.80;3.03;;;;;;;;;;4985036;28;20102;-90
2022/08/04 00:22:34;;;;;;;1.13;0.52;;;;;;;;;;4978013;28;20034;-91
2022/08/04 00:25:04;;;;;;;4.68;2.20;;;;;;;;;;4975347;28;20367;-90
2022/08/04 00:27:31;;;;;;;2.97;1.15;;;;;;;;;;4992467;28;20035;-90
2022/08/04 00:29:57;;;;;;;1.67;0.80;;;;;;;;;;4993886;28;20026;-91
2022/08/04 00:32:25;;;;;;;0.70;0.63;;;;;;;;;;4992636;28;20049;-91
2022/08/04 00:34:51;;;;;;;14.45;1.30;;;;;;;;;;4982510;28;20027;-90
2022/08/04 00:37:20;;;;;;;5.60;1.40;;;;;;;;;;4975767;28;20084;-89
2022/08/04 00:39:46;;;;;;;2.03;0.93;;;;;;;;;;4992520;28;20497;-91
2022/08/04 00:42:15;;;;;;;3.47;0.98;;;;;;;;;;4981021;28;20023;-91
2022/08/04 00:44:50;;;;;;;1.85;1.00;;;;;;;;;;4992437;28;20090;-90
2022/08/04 00:47:16;;;;;;;1.60;1.05;;;;;;;;;;4980606;28;20069;-90
2022/08/04 00:49:42;;;;;;;3.22;1.00;;;;;;;;;;5006841;28;20047;-89
2022/08/04 00:52:32;;;;;;;1.05;0.77;;;;;;;;;;4991344;28;20118;-91
2022/08/04 00:54:58;;;;;;;2.17;1.40;;;;;;;;;;4974905;28;20038;-91
2022/08/04 00:57:24;;;;;;;1.52;1.20;;;;;;;;;;4980018;28;20493;-90
2022/08/04 01:00:01;;;;;;;4.55;1.30;;;;;;;;;;4975729;28;20528;-90
2022/08/04 01:02:27;;;;;;;4.53;0.82;;;;;;;;;;4993135;28;20034;-91
2022/08/04 01:05:08;;;;;;;7.95;1.15;;;;;;;;;;4992707;28;20030;-90
2022/08/04 01:07:41;;;;;;;1.73;1.60;;;;;;;;;;4975364;28;20053;-91
2022/08/04 01:10:24;;;;;;;2.30;1.38;;;25.80;51.80;;;;;;4974961;28;20026;-90
2022/08/04 01:12:56;;;;;;;2.17;1.27;;;;;;;;;;4993795;28;20441;-89
2022/08/04 01:15:56;;;;;;;2.17;1.23;;;25.70;51.70;;;;;;4979991;28;20392;-89
2022/08/04 01:18:35;;;;;;;2.65;1.17;;;25.80;52.00;;;;;;4992137;28;20038;-91
2022/08/04 01:21:16;;;;;;;4.93;1.67;;;;;;;;;;4975565;28;20026;-91
2022/08/04 01:23:42;;;;;;;3.42;1.20;;;;;;;;;;4980342;28;20029;-89
2022/08/04 01:26:34;;;;;;;2.50;2.10;;;;;;;;;;4992243;28;20105;-90
2022/08/04 01:29:12;;;;;;;1.40;0.82;;;25.70;52.50;;;;;;4989649;28;20089;-89
2022/08/04 01:31:50;;;;;;;2.10;1.20;;;;;;;;;;4975845;28;20046;-90
2022/08/04 01:34:19;;;;;;;1.85;1.20;;;25.90;51.40;;;;;;4985405;28;20082;-91
2022/08/04 01:36:46;;;;;;;5.10;1.45;;;;;;;;;;4988310;28;20077;-90
2022/08/04 01:42:01;;;;;;;1.80;1.38;;;25.50;51.90;;;;;;4993246;28;20552;-92
2022/08/04 01:44:30;;;;;;;2.70;1.30;;;;;;;;;;4975854;28;20030;-89
2022/08/04 01:46:56;;;;;;;5.55;0.75;;;;;;;;;;4987555;28;20042;-89
2022/08/04 01:49:27;;;;;;;2.08;1.10;;;;;;;;;;4975390;28;20114;-89
2022/08/04 01:51:55;;;;;;;5.85;1.40;;;;;;;;;;4975124;28;20022;-91
2022/08/04 01:54:22;;;;;;;1.13;0.93;;;;;;;;;;4979908;28;20035;-90
2022/08/04 01:56:52;;;;;;;2.00;1.00;;;;;;;;;;4980112;28;20026;-90
2022/08/04 01:59:20;;;;;;;1.42;1.30;;;;;;;;;;4992807;28;20042;-92
2022/08/04 02:01:46;;;;;;;2.47;1.48;;;;;;;;;;4987512;28;20030;-90
2022/08/04 02:04:19;;;;;;;2.67;1.42;;;;;;;;;;4989940;28;20030;-91
2022/08/04 02:06:49;;;;;;;4.82;1.65;;;;;;;;;;4984245;28;20042;-91
2022/08/04 02:09:52;;;;;;;4.00;1.70;;;25.30;52.70;;;;;;4995884;28;20070;-90
2022/08/04 02:12:25;;;;;;;1.88;1.48;;;;;;;;;;4996123;28;20022;-90
2022/08/04 02:15:01;;;;;;;2.25;1.23;;;25.20;52.50;;;;;;4984785;28;20061;-90
2022/08/04 02:17:50;;;;;;;1.45;1.17;;;25.10;53.10;;;;;;4978735;28;20038;-90
2022/08/04 02:20:33;;;;;;;2.05;1.48;;;24.90;53.40;;;;;;4994943;28;20023;-91
2022/08/04 02:23:01;;;;;;;6.43;1.58;;;;;;;;;;4984542;28;20105;-90
2022/08/04 02:25:28;;;;;;;2.53;1.58;;;;;;;;;;4996006;28;20030;-92
2022/08/04 02:28:00;;;;;;;;;;;24.70;53.80;;;;;;4995516;28;20019;-90
2022/08/04 02:30:28;;;;;;;2.65;1.55;;;;;;;;;;4976292;28;19996;-90
2022/08/04 02:32:57;;;;;;;2.30;1.27;;;;;;;;;;4986136;28;20027;-90
2022/08/04 02:35:26;;;;;;;2.10;1.55;;;;;;;;;;4982753;28;20519;-90
2022/08/04 02:38:05;;;;;;;1.65;1.20;;;25.20;53.00;;;;;;4995783;28;20039;-91
2022/08/04 02:40:31;;;;;;;4.55;1.73;;;;;;;;;;4990654;28;20073;-90
2022/08/04 02:43:03;;;;;;;2.38;1.45;;;24.70;54.40;;;;;;4975466;28;20177;-90
2022/08/04 02:45:31;;;;;;;1.60;1.20;;;;;;;;;;4994804;28;20037;-90
2022/08/04 02:48:01;;;;;;;2.15;1.15;;;;;;;;;;4994439;28;20038;-90
2022/08/04 02:50:29;;;;;;;5.18;1.20;;;;;;;;;;4966117;28;20031;-91
2022/08/04 02:52:56;;;;;;;1.98;1.38;;;;;;;;;;4982814;28;20489;-90
2022/08/04 02:55:23;;;;;;;2.63;1.13;;;;;;;;;;4994188;28;20576;-91
2022/08/04 02:57:49;;;;;;;2.78;1.42;;;;;;;;;;4993878;28;20034;-91
2022/08/04 03:00:18;;;;;;;2.67;1.30;;;;;;;;;;4984191;28;20049;-89
2022/08/04 03:02:50;;;;;;;2.17;1.55;;;;;;;;;;4992923;28;20057;-91
2022/08/04 03:05:18;;;;;;;2.67;1.30;;;24.50;54.50;;;;;;4976164;28;20101;-90
2022/08/04 03:07:56;;;;;;;2.85;1.45;;;;;;;;;;4994306;28;20412;-90
2022/08/04 03:10:53;;;;;;;4.22;2.05;;;24.70;53.20;;;;;;4995327;28;20022;-89
2022/08/04 03:13:41;;;;;;;2.38;1.52;;;24.50;54.00;;;;;;4983067;28;20030;-90
2022/08/04 03:16:13;;;;;;;5.78;1.20;;;;;;;;;;4994110;28;20034;-90
2022/08/04 03:18:48;;;;;;;2.67;1.52;;;;;;;;;;4994995;28;20064;-90
2022/08/04 03:21:20;;;;;;;1.95;1.73;;;;;;;;;;4995123;28;20050;-92
2022/08/04 03:24:23;;;;;;;1.42;0.90;;;24.50;54.50;;;;;;4994821;28;20026;-90
2022/08/04 03:27:07;;;;;;;1.33;1.02;;;24.20;55.30;;;;;;4994867;28;20054;-91
2022/08/04 03:29:38;;;;;;;1.02;0.90;;;;;;;;;;4983061;28;20030;-90
2022/08/04 03:32:17;;;;;;;4.97;1.40;;;;;;;;;;4994901;28;20489;-91
2022/08/04 03:34:43;;;;;;;2.67;1.77;;;;;;;;;;4993737;28;20022;-90
2022/08/04 03:37:27;;;;;;;3.20;2.17;;;;;;;;;;4989464;28;20393;-89
2022/08/04 03:39:59;;;;;;;9.43;1.70;;;;;;;;;;4988019;28;20038;-90
2022/08/04 03:42:25;;;;;;;2.22;1.52;;;;;;;;;;4982453;28;20026;-90
2022/08/04 03:44:51;;;;;;;2.17;1.40;;;;;;;;;;4994076;28;20037;-89
2022/08/04 03:47:20;;;;;;;1.30;0.95;;;;;;;;;;4986924;28;20110;-90
2022/08/04 03:50:11;;;;;;;1.90;1.08;;;23.90;56.50;;;;;;4989008;28;20054;-90
2022/08/04 03:53:08;;;;;;;5.47;1.85;;;;;;;;;;4994611;28;20433;-91
2022/08/04 03:55:40;;;;;;;2.03;1.40;;;;;;;;;;4983650;28;20508;-91
2022/08/04 03:58:24;;;;;;;4.50;2.78;;;24.00;55.50;;;;;;4994414;28;20042;-90
2022/08/04 04:00:59;;;;;;;2.65;1.92;;;;;;;;;;4993520;28;20472;-90
2022/08/04 04:04:05;;;;;;;2.03;1.17;;;24.10;55.10;;;;;;4981652;28;20083;-91
2022/08/04 04:06:34;;;;;;;3.30;1.08;;;;;;;;;;4976747;28;20489;-89
2022/08/04 04:09:00;;;;;;;2.17;1.50;;;;;;;;;;4976701;28;20082;-91
2022/08/04 04:11:35;;;;;;;2.63;1.60;;;;;;;;;;4983383;28;20515;-92
2022/08/04 04:14:01;;;;;;;7.82;2.05;;;;;;;;;;4976657;28;20485;-90
2022/08/04 04:16:36;;;;;;;4.63;1.95;;;;;;;;;;4992636;28;20026;-91
2022/08/04 04:19:29;;;;;;;7.03;1.73;;;23.80;55.90;;;;;;4963856;28;20043;-90
2022/08/04 04:21:58;;;;;;;2.97;1.55;;;;;;;;;;4992960;28;20076;-89
2022/08/04 04:24:43;;;;;;;6.57;1.33;;;;;;;;;;4993721;28;20034;-90
2022/08/04 04:27:09;;;;;;;2.05;1.48;;;;;;;;;;4991175;28;20584;-89
2022/08/04 04:29:38;;;;;;;3.00;1.33;;;;;;;;;;4983483;28;20113;-90
2022/08/04 04:32:07;;;;;;;3.28;2.00;;;;;;;;;;4980955;28;20041;-91
2022/08/04 04:34:40;;;;;;;2.50;1.33;;;;;;;;;;4992718;28;20026;-92
2022/08/04 04:37:20;;;;;;;3.03;1.75;;;;;;;;;;4991974;28;20030;-90
2022/08/04 04:39:49;;;;;;;2.10;1.65;;;;;;;;;;4992284;28;20062;-90
2022/08/04 04:42:46;;;;;;;2.58;1.58;;;23.60;57.40;;;;;;4979211;28;20054;-91
2022/08/04 04:45:24;;;;;;;8.52;2.40;;;;;;;;;;4985101;28;20030;-89
2022/08/04 04:48:12;;;;;;;3.88;1.40;;;;;;;;;;4973101;28;20031;-89
2022/08/04 04:50:38;;;;;;;2.28;1.40;;;;;;;;;;4983476;28;20030;-91
2022/08/04 04:53:23;;;;;;;4.22;1.73;;;24.50;54.00;;;;;;4992979;28;20552;-92
2022/08/04 04:56:01;;;;;;;7.15;1.58;;;24.70;53.00;;;;;;4993525;28;20057;-89
2022/08/04 04:58:31;;;;;;;4.57;2.00;;;;;;;;;;4979235;28;20049;-90
2022/08/04 05:01:00;;;;;;;5.75;1.83;;;;;;;;;;4975940;28;20045;-90
2022/08/04 05:03:32;;;;;;;17.33;1.63;;;;;;;;;;4985784;28;20031;-89
2022/08/04 05:06:08;;;;;;;2.88;1.60;;;;;;;;;;4987302;28;20030;-91
2022/08/04 05:08:40;;;;;;;4.63;2.22;;;;;;;;;;4984661;28;20098;-89
2022/08/04 05:11:31;;;;;;;1.38;1.27;;;24.80;52.90;;;;;;4980352;28;20038;-89
2022/08/04 05:13:58;;;;;;;2.85;1.90;;;;;;;;;;4985567;28;20117;-89
2022/08/04 05:16:24;;;;;;;3.67;1.77;;;;;;;;;;4963506;28;20038;-90
2022/08/04 05:19:22;;;;;;;2.40;1.50;;;24.70;53.40;;;;;;4993144;28;20034;-89
2022/08/04 05:22:05;;;;;;;8.05;2.78;;;24.60;54.10;;;;;;4975715;28;20045;-91
2022/08/04 05:24:34;;;;;;;2.25;1.05;;;;;;;;;;4991614;28;20022;-90
2022/08/04 05:27:08;;;;;;;2.72;2.20;;;24.80;54.00;;;;;;4991614;28;20086;-90
2022/08/04 05:29:37;;;;;;;6.68;1.60;;;24.80;54.10;;;;;;4975275;28;20033;-91
2022/08/04 05:32:08;;;;;;;2.38;1.60;;;;;;;;;;4975477;28;20038;-91
2022/08/04 05:34:38;;;;;;;7.30;1.35;;;;;;;;;;4991576;28;20025;-94
2022/08/04 05:37:10;;;;;;;4.20;1.80;;;24.60;55.40;;;;;;4990582;28;20109;-89
2022/08/04 05:39:48;;;;;;;13.75;2.67;;;24.50;56.10;;;;;;4978204;28;20441;-89
2022/08/04 05:42:14;;;;;;;2.50;1.50;;;;;;;;;;4995478;28;20061;-88
2022/08/04 05:44:41;;;;;;;2.22;1.42;;;;;;;;;;4984950;28;20066;-88
2022/08/04 05:47:07;;;;;;;4.38;1.65;;;;;;;;;;4993963;28;20023;-91
2022/08/04 05:49:34;;;;;;;4.25;1.67;;;;;;;;;;4977278;28;20028;-89
2022/08/04 05:52:02;;;;;;;2.67;1.80;;;24.90;56.00;;;;;;4995038;28;20096;-88
2022/08/04 05:54:30;;;;;;;1.70;1.58;;;25.10;55.70;;;;;;4996655;28;20026;-88
2022/08/04 05:56:57;;;;;;;3.78;1.65;;;;;;;;;;4988740;28;20035;-89
2022/08/04 05:59:27;;;;;;;3.75;1.30;;;;;;;;;;4984163;28;20030;-88
2022/08/04 06:01:55;;;;;;;2.83;1.90;;;25.10;56.30;;;;;;4994090;28;20022;-90
2022/08/04 06:04:22;;;;;;;11.20;2.05;;;;;;;;;;4994328;28;20493;-89
2022/08/04 06:06:48;;;;;;;;;;;25.10;56.30;;;;;;4998732;28;20061;-88
2022/08/04 06:09:14;;;;;;;4.70;2.27;;;;;;;;;;4990771;28;19918;-88
2022/08/04 06:11:42;;;;;;;3.57;1.33;;;25.50;55.50;;;;;;4990779;28;20105;-89
2022/08/04 06:14:12;;;;;;;2.22;1.85;;;25.80;55.00;;;;;;4994468;28;20034;-90
2022/08/04 06:16:43;;;;;;;6.68;1.88;;;26.00;54.70;;;;;;4989635;28;20032;-89
2022/08/04 06:19:12;;;;;;;7.30;1.30;;;26.20;53.60;;;;;;4985214;28;20034;-89
2022/08/04 06:21:41;;;;;;;1.60;1.45;;;26.30;53.80;;;;;;4984288;28;20027;-89
2022/08/04 06:24:13;;;;;;;2.10;1.75;;;26.40;54.90;;;;;;4977384;28;20022;-88
2022/08/04 06:26:39;;;;;;;4.53;1.33;;;;;;;;;;4981203;28;20023;-89
2022/08/04 06:29:14;;;;;;;4.50;1.80;;;26.70;54.50;;;;;;4990176;28;20081;-88
2022/08/04 06:31:56;;;;;;;3.97;1.75;;;26.90;54.00;;;;;;4994159;28;20065;-88
2022/08/04 06:34:24;;;;;;;5.57;1.67;;;27.20;51.20;;;;;;4993929;28;20022;-88
2022/08/04 06:36:50;;;;;;;6.85;1.98;;;;;;;;;;4976201;28;20092;-88
2022/08/04 06:39:16;;;;;;;3.10;1.35;;;;;;;;;;4994135;28;20022;-88
2022/08/04 06:41:43;;;;;;;6.72;1.83;;;27.70;52.10;;;;;;4985081;28;20035;-89
2022/08/04 06:44:10;;;;;;;4.73;1.27;;;27.90;50.40;;;;;;4994087;28;20030;-90
2022/08/04 06:46:39;;;;;;;6.10;1.95;;;28.10;47.10;;;;;;4986694;28;20109;-89
2022/08/04 06:49:05;;;;;;;3.63;2.05;;;;;;;;;;4969558;28;20065;-88
2022/08/04 06:51:33;;;;;;;8.40;2.07;;;28.20;46.30;;;;;;4994023;28;20023;-89
2022/08/04 06:53:59;;;;;;;6.18;1.73;;;;;;;;;;4992429;28;20026;-88
2022/08/04 06:56:28;;;;;;;7.28;2.67;;;28.90;45.80;;;;;;4985367;28;20030;-89
2022/08/04 06:58:54;;;;;;;13.80;1.83;;;29.20;46.50;;;;;;4987829;28;20034;-89
2022/08/04 07:01:21;;;;;;;6.40;1.10;;;29.60;44.30;;;;;;4987441;28;20054;-88
2022/08/04 07:03:47;;;;;;;;;;;;;;;;;;4993736;28;20065;-88
2022/08/04 07:06:14;;;;;;;5.13;1.87;;;;;;;;;;4992655;28;19933;-89
2022/08/04 07:08:40;;;;;;;6.72;2.97;;;;;;;;;;4989072;28;20081;-93
2022/08/04 07:11:06;;;;;;;4.20;2.53;;;;;;;;;;4978243;28;20030;-91
2022/08/04 07:13:32;;;;;;;3.83;2.70;;;;;;;;;;4986703;28;20045;-92
2022/08/04 07:16:00;;;;;;;5.93;2.17;;;35.70;34.80;;;;;;4988390;28;20088;-91
2022/08/04 07:18:26;;;;;;;6.60;2.50;;;;;;;;;;4972974;28;20045;-87
2022/08/04 07:20:52;;;;;;;;;;;38.50;31.90;;;;;;4987965;28;20030;-92
2022/08/04 07:23:23;;;;;;;6.05;2.42;;;40.10;30.10;;;;;;4993008;28;19921;-93
2022/08/04 07:25:54;;;;;;;2.92;2.35;;;40.50;28.80;;;;;;4978763;28;20030;-94
2022/08/04 07:28:21;;;;;;;5.43;2.67;;;40.90;28.70;;;;;;4977427;28;20057;-93
2022/08/04 07:30:48;;;;;;;5.20;1.70;;;41.30;28.30;;;;;;4987774;28;20101;-91
2022/08/04 07:33:18;;;;;;;2.15;2.05;;;42.10;27.40;;;;;;4982891;28;20112;-92
2022/08/04 07:35:51;;;;;;;3.22;2.50;;;42.30;27.10;;;;;;4991842;28;20019;-94
2022/08/04 07:38:18;;;;;;;2.67;2.17;;;;;;;;;;4981871;28;20034;-90
2022/08/04 07:40:45;;;;;;;5.22;3.30;;;43.00;26.90;;;;;;4998920;28;20373;-93
2022/08/04 07:43:11;;;;;;;3.78;2.38;;;;;;;;;;4987833;28;20038;-92
2022/08/04 07:45:37;;;;;;;3.67;2.33;;;;;;;;;;4994630;28;20093;-90
2022/08/04 07:48:05;;;;;;;2.30;2.10;;;;;;;;;;4989893;28;20050;-92
2022/08/04 07:50:32;;;;;;;2.03;1.92;;;;;;;;;;4985141;28;20026;-94
2022/08/04 07:52:58;;;;;;;3.90;2.75;;;;;;;;;;4988567;28;20022;-91
2022/08/04 07:55:25;;;;;;;1.83;1.73;;;44.10;25.90;;;;;;4975242;28;20022;-93
2022/08/04 07:57:51;;;;;;;4.45;1.90;;;;;;;;;;4989397;28;20041;-92
2022/08/04 08:00:17;;;;;;;4.07;2.38;;;;;;;;;;4987978;28;20014;-93
2022/08/04 08:02:43;;;;;;;4.38;2.72;;;;;;;;;;4988174;28;20038;-94
2022/08/04 08:05:11;;;;;;;1.60;1.50;;;44.40;26.10;;;;;;4972885;28;20022;-94
2022/08/04 08:07:37;;;;;;;4.30;1.65;;;;;;;;;;4972236;28;20043;-93
2022/08/04 08:10:03;;;;;;;2.63;1.40;;;;;;;;;;4972132;28;20054;-93
2022/08/04 08:12:31;;;;;;;10.02;1.55;;;;;;;;;;4971287;28;20027;-93
2022/08/04 08:14:58;;;;;;;1.75;1.05;;;;;;;;;;4971273;28;20113;-93
2022/08/04 08:17:24;;;;;;;4.93;1.00;;;;;;;;;;4959995;28;20038;-92
2022/08/04 08:19:50;;;;;;;1.00;0.80;;;;;;;;;;4955725;28;20030;-93
2022/08/04 08:22:16;;;;;;;2.55;0.90;;;;;;;;;;4955661;28;20030;-92
2022/08/04 08:24:42;;;;;;;0.82;0.73;;;;;;;;;;4969038;28;20023;-93
2022/08/04 08:27:08;;;;;;;1.33;1.15;;;;;;;;;;4972479;28;20113;-90
2022/08/04 08:29:34;;;;;;;1.33;0.85;;;;;;;;;;4957610;28;20409;-91
2022/08/04 08:32:02;;;;;;;1.95;1.27;;;45.40;25.10;;;;;;4973030;28;20031;-93
2022/08/04 08:34:29;;;;;;;2.25;1.40;;;46.90;25.30;;;;;;4968893;28;20026;-95
2022/08/04 08:37:13;;;;;;;2.85;0.80;;;46.80;24.60;;;;;;4973640;28;20118;-94
2022/08/04 08:39:53;;;;;;;0.90;0.65;;;47.00;24.40;;;;;;4950765;28;20101;-95
2022/08/04 08:42:56;;;;;;;2.15;0.70;;;47.50;24.70;;;;;;4972377;28;20038;-94
2022/08/04 08:46:07;;;;;;;1.58;0.80;;;47.50;24.10;;;;;;4962888;28;20019;-96
2022/08/04 08:49:16;;;;;;;1.88;1.38;;;48.20;24.30;;;;;;4984732;28;20093;-94
2022/08/04 08:52:35;;;;;;;8.63;0.93;;;48.20;24.10;;;;;;4962672;28;20051;-93
2022/08/04 08:55:05;;;;;;;1.77;0.55;;;;;;;;;;4969832;28;20042;-91
2022/08/04 08:57:42;;;;;;;2.53;0.73;;;;;;;;;;4955461;28;20097;-93
2022/08/04 09:00:22;;;;;;;2.55;0.70;;;47.90;24.20;;;;;;4973502;28;20481;-95
2022/08/04 09:02:54;;;;;;;2.17;0.60;;;;;;;;;;4954775;28;20039;-95
2022/08/04 09:05:23;;;;;;;0.88;0.47;;;;;;;;;;4956049;28;20042;-95
2022/08/04 09:07:49;;;;;;;2.55;0.90;;;;;;;;;;4972334;28;20046;-96
2022/08/04 09:10:25;;;;;;;1.17;0.60;;;;;;;;;;4975237;28;20038;-95
2022/08/04 09:12:51;;;;;;;2.40;0.70;;;;;;;;;;4990680;28;20041;-94
2022/08/04 09:15:38;;;;;;;1.00;0.57;;;48.90;24.10;;;;;;4973494;28;20019;-95
2022/08/04 09:18:07;;;;;;;0.75;0.50;;;;;;;;;;4990106;28;20039;-94
2022/08/04 09:20:46;;;;;;;1.55;0.60;;;49.30;23.40;;;;;;4991628;28;20592;-93
2022/08/04 09:23:17;;;;;;;2.15;0.50;;;48.50;23.90;;;;;;4987938;28;20073;-91
2022/08/04 09:25:53;;;;;;;0.77;0.50;;;48.30;23.70;;;;;;4990027;28;20025;-93
2022/08/04 09:28:22;;;;;;;;;;;48.00;23.70;;;;;;4979847;28;20030;-90
2022/08/04 09:30:56;;;;;;;1.00;0.50;;;48.70;24.20;;;;;;4991594;28;19912;-94
2022/08/04 09:33:22;;;;;;;1.63;0.73;;;;;;;;;;4991884;28;20022;-92
2022/08/04 09:36:08;;;;;;;;;;;48.30;23.80;;;;;;4991395;28;20039;-92
2022/08/04 09:39:08;;;;;;;2.85;0.65;;;48.40;23.50;;;;;;4973724;28;20024;-93
2022/08/04 09:41:34;;;;;;;1.35;0.52;;;;;;;;;;4967480;28;20795;-90
2022/08/04 09:44:34;;;;;;;2.90;0.55;;;49.10;23.40;;;;;;4971472;28;20080;-91
2022/08/04 09:47:03;;;;;;;2.85;0.75;;;;;;;;;;4989044;28;20065;-92
2022/08/04 09:49:37;;;;;;;0.68;0.50;;;49.30;23.20;;;;;;4974166;28;20018;-91
2022/08/04 09:52:03;;;;;;;0.63;0.40;;;;;;;;;;4988535;28;20034;-90
2022/08/04 09:54:32;;;;;;;2.58;0.80;;;;;;;;;;4969632;28;20023;-92
2022/08/04 09:57:17;;;;;;;1.00;0.30;;;49.30;23.30;;;;;;4968944;28;20068;-90
2022/08/04 09:59:57;;;;;;;0.60;0.40;;;;;;;;;;4985056;28;20030;-94
2022/08/04 10:02:24;;;;;;;3.25;0.50;;;;;;;;;;4989139;28;20046;-94
2022/08/04 10:04:50;;;;;;;0.77;0.45;;;;;;;;;;4988101;28;20071;-92
2022/08/04 10:07:35;;;;;;;0.95;0.52;;;;;;;;;;4990252;28;20117;-93
2022/08/04 10:10:25;;;;;;;3.30;0.57;;;49.40;22.60;;;;;;4965919;28;20579;-92
2022/08/04 10:12:54;;;;;;;2.65;1.15;;;;;;;;;;4973472;28;20030;-92
2022/08/04 10:15:26;;;;;;;0.63;0.38;;;49.90;22.30;;;;;;4972725;28;20030;-92
2022/08/04 10:17:55;;;;;;;0.43;0.30;;;;;;;;;;4990315;28;20034;-90
2022/08/04 10:20:37;;;;;;;3.97;0.30;;;;;;;;;;4991813;28;20061;-91
2022/08/04 10:23:09;;;;;;;3.40;0.63;;;;;;;;;;4987780;28;20057;-88
2022/08/04 10:25:44;;;;;;;0.32;0.20;;;;;;;;;;4990522;28;20014;-90
2022/08/04 10:28:17;;;;;;;0.75;0.30;;;50.30;21.70;;;;;;4976994;28;20030;-90
2022/08/04 10:30:58;;;;;;;4.85;0.80;;;50.10;21.60;;;;;;5001057;28;20113;-90
2022/08/04 10:33:31;;;;;;;0.17;0.10;;;50.40;21.60;;;;;;4989358;28;20026;-89
2022/08/04 10:36:05;;;;;;;0.80;0.43;;;50.90;21.40;;;;;;4990985;28;20026;-89
2022/08/04 10:38:39;;;;;;;0.57;0.20;;;50.70;21.40;;;;;;4991996;28;20034;-89
2022/08/04 10:41:20;;;;;;;0.30;0.10;;;;;;;;;;4994630;28;20069;-89
2022/08/04 10:44:30;;;;;;;0.73;0.30;;;50.30;21.30;;;;;;4989015;28;20037;-90
2022/08/04 10:47:13;;;;;;;0.63;0.28;;;50.40;21.30;;;;;;4975930;28;20026;-90
2022/08/04 10:49:45;;;;;;;0.45;0.22;;;;;;;;;;4988263;28;20069;-91
2022/08/04 10:52:19;;;;;;;5.00;0.30;;;;;;;;;;4991349;28;20142;-90
2022/08/04 10:55:05;;;;;;;0.93;0.40;;;50.00;22.30;;;;;;4987504;28;20117;-90
2022/08/04 10:57:40;;;;;;;0.90;0.45;;;49.50;21.50;;;;;;4975537;28;20121;-90
2022/08/04 11:00:21;;;;;;;0.55;0.20;;;48.60;21.90;;;;;;4992918;28;20390;-89
2022/08/04 11:03:11;;;;;;;2.67;0.57;;;;;;;;;;4985440;28;20520;-91
2022/08/04 11:06:03;;;;;;;0.95;0.40;;;45.60;22.80;;;;;;4968117;28;20022;-90
2022/08/04 11:08:31;;;;;;;0.60;0.40;;;;;;;;;;4988274;28;20149;-91
2022/08/04 11:11:00;;;;;;;0.35;0.20;;;;;;;;;;4994410;28;20470;-92
2022/08/04 11:13:32;;;;;;;0.73;0.40;;;;;;;;;;4989046;28;20014;-94
2022/08/04 11:16:02;;;;;;;2.55;0.45;;;;;;;;;;4993319;28;20029;-92
2022/08/04 11:18:47;;;;;;;0.95;0.50;;;;;;;;;;4976226;28;20386;-92
2022/08/04 11:21:21;;;;;;;2.05;0.40;;;;;;;;;;4991678;28;20117;-95
2022/08/04 11:24:01;;;;;;;0.60;0.45;;;;;;;;;;4991735;28;20026;-94
2022/08/04 11:26:38;;;;;;;0.52;0.40;;;;;;;;;;4987899;28;20030;-93
2022/08/04 11:29:21;;;;;;;;;;;40.40;25.40;;;;;;4992076;28;20049;-92
2022/08/04 11:31:48;;;;;;;0.98;0.35;;;;;;;;;;4991229;28;19905;-92
2022/08/04 11:34:24;;;;;;;1.02;0.65;;;;;;;;;;4997597;28;20061;-90
2022/08/04 11:37:14;;;;;;;1.25;0.95;;;39.50;26.10;;;;;;4994968;28;20030;-93
2022/08/04 11:40:02;;;;;;;0.88;0.45;;;39.20;26.20;;;;;;4992956;28;20085;-96
2022/08/04 11:42:34;;;;;;;1.08;0.63;;;;;;;;;;4996031;28;20036;-96
2022/08/04 11:45:03;;;;;;;1.80;0.93;;;;;;;;;;4995984;28;20065;-95
2022/08/04 11:47:32;;;;;;;1.20;0.70;;;;;;;;;;4979443;28;20450;-95
2022/08/04 11:50:09;;;;;;;1.50;0.57;;;;;;;;;;4980160;28;20037;-95
2022/08/04 11:52:37;;;;;;;1.08;0.90;;;;;;;;;;4972211;28;20037;-96
2022/08/04 11:55:06;;;;;;;4.40;0.85;;;;;;;;;;4997186;28;20034;-96
2022/08/04 11:57:33;;;;;;;1.15;0.82;;;;;;;;;;4996934;28;20105;-96
2022/08/04 12:00:00;;;;;;;0.98;0.47;;;;;;;;;;4995508;28;20033;-93
2022/08/04 12:02:36;;;;;;;0.40;0.38;;;;;;;;;;4995454;28;20157;-94
2022/08/04 12:05:05;;;;;;;2.83;0.40;;;;;;;;;;4989187;28;20385;-96
2022/08/04 12:07:40;;;;;;;1.30;0.70;;;;;;;;;;4995102;28;20042;-95
2022/08/04 12:10:11;;;;;;;1.88;0.82;;;;;;;;;;4976121;28;20113;-95
2022/08/04 12:12:38;;;;;;;1.92;0.98;;;;;;;;;;4990861;28;20027;-95
2022/08/04 12:15:12;;;;;;;0.80;0.60;;;;;;;;;;4975844;28;20024;-93
2022/08/04 12:17:45;;;;;;;1.50;0.80;;;37.60;28.80;;;;;;4988986;28;20118;-93
2022/08/04 12:20:15;;;;;;;1.33;0.70;;;;;;;;;;4968629;28;20030;-96
2022/08/04 12:22:45;;;;;;;1.63;0.82;;;;;;;;;;4994774;28;20037;-94
2022/08/04 12:25:30;;;;;;;4.20;0.57;;;;;;;;;;4993912;28;20030;-94
2022/08/04 12:28:02;;;;;;;3.13;0.63;;;;;;;;;;4983499;28;20073;-95
2022/08/04 12:30:35;;;;;;;0.80;0.60;;;37.30;28.90;;;;;;4994334;28;20022;-96
2022/08/04 12:33:03;;;;;;;0.98;0.65;;;;;;;;;;4986434;28;20030;-94
2022/08/04 12:35:40;;;;;;;1.83;0.90;;;36.90;28.90;;;;;;4976931;28;20018;-93
2022/08/04 12:38:06;;;;;;;;;;;36.90;28.90;;;;;;4995143;28;20034;-94
2022/08/04 12:40:52;;;;;;;;;;;37.00;29.20;;;;;;4992808;28;19921;-95
2022/08/04 12:43:18;;;;;;;;;;;37.10;29.60;;;;;;4981813;28;19968;-96
2022/08/04 12:45:51;;;;;;;1.38;0.70;;;;;;;;;;4993257;28;19914;-94
2022/08/04 12:48:18;;;;;;;1.50;0.70;;;36.90;28.50;;;;;;4982252;28;20119;-95
2022/08/04 12:50:55;;;;;;;1.17;0.70;;;36.80;28.50;;;;;;4973610;28;20030;-93
2022/08/04 12:53:28;;;;;;;0.90;0.70;;;36.80;28.60;;;;;;4992662;28;20029;-95
2022/08/04 12:55:56;;;;;;;2.80;0.57;;;;;;;;;;4989401;28;20035;-94
2022/08/04 12:58:23;;;;;;;5.40;1.00;;;37.10;28.60;;;;;;4966949;28;20034;-94
2022/08/04 13:01:01;;;;;;;1.17;0.70;;;37.10;28.70;;;;;;4981368;28;20478;-94
2022/08/04 13:03:40;;;;;;;3.63;0.50;;;36.90;28.00;;;;;;4973294;28;20030;-94
2022/08/04 13:06:08;;;;;;;1.08;0.55;;;;;;;;;;4988843;28;20018;-94
2022/08/04 13:08:40;;;;;;;1.38;0.60;;;36.40;28.00;;;;;;4999885;28;20058;-94
2022/08/04 13:11:08;;;;;;;1.17;0.80;;;36.30;28.30;;;;;;4974119;28;20505;-94
2022/08/04 13:13:36;;;;;;;1.58;0.60;;;36.20;28.20;;;;;;4965591;28;20031;-94
2022/08/04 13:16:07;;;;;;;1.50;0.65;;;36.20;28.60;;;;;;4971874;28;20039;-93
2022/08/04 13:18:47;;;;;;;1.25;0.70;;;36.00;28.60;;;;;;4989830;28;20041;-94
2022/08/04 13:21:13;;;;;;;0.98;0.70;;;;;;;;;;4989260;28;20026;-93
2022/08/04 13:23:41;;;;;;;0.90;0.50;;;36.20;28.60;;;;;;4973543;28;20382;-94
2022/08/04 13:26:08;;;;;;;1.35;0.77;;;;;;;;;;4962061;28;20119;-94
2022/08/04 13:28:34;;;;;;;1.80;0.77;;;;;;;;;;4973547;28;20023;-96
2022/08/04 13:31:02;;;;;;;1.90;0.90;;;;;;;;;;4973601;28;20035;-94
2022/08/04 13:33:35;;;;;;;0.98;0.57;;;;;;;;;;4973916;28;20047;-95
2022/08/04 13:36:02;;;;;;;1.02;0.68;;;;;;;;;;4975099;28;20582;-95
2022/08/04 13:38:29;;;;;;;1.17;0.50;;;36.30;28.50;;;;;;4973776;28;20031;-92
2022/08/04 13:40:56;;;;;;;1.50;0.80;;;;;;;;;;4974401;28;20110;-93
2022/08/04 13:43:26;;;;;;;1.42;0.95;;;;;;;;;;4973999;28;20065;-96
2022/08/04 13:45:59;;;;;;;1.38;0.60;;;;;;;;;;4974450;28;20033;-94
2022/08/04 13:48:25;;;;;;;1.95;0.88;;;;;;;;;;4989314;28;20085;-95
2022/08/04 13:50:54;;;;;;;5.53;0.73;;;;;;;;;;4974405;28;20029;-94
2022/08/04 13:53:20;;;;;;;0.88;0.68;;;;;;;;;;4989878;28;20405;-95
2022/08/04 13:55:47;;;;;;;2.83;0.55;;;;;;;;;;4974345;28;20027;-94
2022/08/04 13:58:18;;;;;;;3.83;0.82;;;;;;;;;;4975540;28;20039;-94
2022/08/04 14:00:47;;;;;;;1.65;0.90;;;;;;;;;;4978102;28;20026;-96
2022/08/04 14:03:20;;;;;;;2.00;1.00;;;;;;;;;;4977929;28;20030;-96
2022/08/04 14:06:04;;;;;;;0.98;0.50;;;;;;;;;;4976671;28;20030;-94
2022/08/04 14:08:32;;;;;;;0.90;0.90;;;;;;;;;;4962959;28;20047;-94
2022/08/04 14:10:58;;;;;;;1.35;0.63;;;;;;;;;;4973659;28;20080;-93
2022/08/04 14:13:32;;;;;;;1.13;0.55;;;;;;;;;;4984174;28;20019;-95
2022/08/04 14:15:58;;;;;;;6.65;0.60;;;;;;;;;;4977212;28;20041;-94
2022/08/04 14:18:25;;;;;;;1.45;0.90;;;;;;;;;;4997015;28;20030;-94
2022/08/04 14:20:58;;;;;;;1.40;0.77;;;;;;;;;;4977831;28;20023;-95
2022/08/04 14:23:24;;;;;;;5.50;1.73;;;;;;;;;;4979535;28;20520;-95
2022/08/04 14:25:51;;;;;;;0.98;0.70;;;;;;;;;;4985336;28;20030;-94
2022/08/04 14:28:30;;;;;;;1.38;0.70;;;;;;;;;;4988983;28;20038;-94
2022/08/04 14:31:09;;;;;;;3.13;1.05;;;;;;;;;;4994112;28;20033;-95
2022/08/04 14:33:39;;;;;;;4.22;0.75;;;;;;;;;;4996925;28;20026;-96
2022/08/04 14:36:06;;;;;;;1.67;0.63;;;;;;;;;;4988732;28;20078;-93
2022/08/04 14:38:42;;;;;;;1.17;0.63;;;;;;;;;;4990955;28;20042;-94